createdAt,value
2017-09-01T00:01:50.367Z,13.13
2017-09-01T00:04:18.034Z,13.87
2017-09-01T00:06:45.596Z,14.07
2017-09-01T00:09:13.129Z,15.07
2017-09-01T00:11:40.621Z,12.80
2017-09-01T00:14:08.152Z,15.50
2017-09-01T00:16:35.865Z,14.70
2017-09-01T00:19:03.381Z,14.50
2017-09-01T00:21:30.885Z,14.90
2017-09-01T00:23:58.367Z,14.43
2017-09-01T00:26:25.872Z,14.57
2017-09-01T00:28:53.365Z,14.03
2017-09-01T00:31:20.934Z,14.40
2017-09-01T00:33:48.459Z,16.80
2017-09-01T00:36:16.036Z,14.50
2017-09-01T00:38:43.564Z,13.80
2017-09-01T00:41:11.105Z,15.53
2017-09-01T00:43:38.888Z,13.97
2017-09-01T00:46:06.408Z,14.23
2017-09-01T00:48:33.904Z,14.63
2017-09-01T00:51:01.476Z,15.17
2017-09-01T00:53:29.358Z,15.77
2017-09-01T00:55:56.882Z,15.67
2017-09-01T00:58:24.416Z,15.00
2017-09-01T01:00:51.951Z,14.90
2017-09-01T01:03:19.512Z,14.30
2017-09-01T01:05:47.079Z,14.93
2017-09-01T01:08:14.733Z,14.90
2017-09-01T01:10:42.228Z,16.17
2017-09-01T01:13:09.788Z,14.90
2017-09-01T01:15:37.333Z,15.27
2017-09-01T01:18:04.858Z,15.63
2017-09-01T01:20:32.352Z,14.33
2017-09-01T01:22:59.887Z,15.33
2017-09-01T01:25:27.388Z,14.93
2017-09-01T01:27:54.873Z,14.67
2017-09-01T01:30:22.383Z,15.17
2017-09-01T01:32:49.964Z,14.10
2017-09-01T01:35:17.516Z,15.13
2017-09-01T01:37:45.171Z,14.80
2017-09-01T01:40:12.778Z,15.20
2017-09-01T01:42:40.264Z,16.03
2017-09-01T01:45:07.788Z,15.13
2017-09-01T01:47:35.293Z,14.90
2017-09-01T01:50:02.825Z,15.87
2017-09-01T01:52:30.392Z,15.13
2017-09-01T01:54:57.932Z,14.00
2017-09-01T01:57:25.577Z,16.00
2017-09-01T01:59:53.061Z,13.17
2017-09-01T02:02:20.581Z,14.63
2017-09-01T02:04:48.092Z,14.03
2017-09-01T02:07:15.668Z,14.23
2017-09-01T02:09:43.177Z,13.60
2017-09-01T02:12:10.744Z,13.00
2017-09-01T02:14:38.233Z,14.20
2017-09-01T02:17:05.751Z,15.00
2017-09-01T02:19:33.390Z,13.63
2017-09-01T02:22:00.889Z,12.87
2017-09-01T02:24:28.455Z,12.50
2017-09-01T02:26:55.953Z,12.87
2017-09-01T02:29:23.549Z,12.90
2017-09-01T02:31:51.069Z,15.40
2017-09-01T02:34:18.632Z,14.70
2017-09-01T02:36:46.284Z,14.27
2017-09-01T02:39:13.840Z,13.40
2017-09-01T02:41:41.372Z,13.67
2017-09-01T02:44:08.861Z,14.27
2017-09-01T02:46:36.378Z,14.40
2017-09-01T02:49:03.874Z,13.63
2017-09-01T02:51:31.377Z,13.10
2017-09-01T02:53:58.888Z,13.27
2017-09-01T02:56:26.389Z,15.60
2017-09-01T02:58:53.877Z,13.80
2017-09-01T03:01:21.445Z,15.00
2017-09-01T03:03:48.954Z,13.63
2017-09-01T03:06:16.504Z,12.97
2017-09-01T03:08:44.058Z,13.90
2017-09-01T03:11:11.597Z,13.40
2017-09-01T03:13:39.089Z,12.97
2017-09-01T03:16:06.606Z,14.07
2017-09-01T03:18:34.128Z,13.97
2017-09-01T03:21:01.660Z,15.43
2017-09-01T03:23:29.213Z,14.70
2017-09-01T03:25:56.713Z,14.07
2017-09-01T03:28:25.165Z,14.50
2017-09-01T03:30:52.661Z,14.27
2017-09-01T03:33:20.233Z,14.97
2017-09-01T03:35:47.789Z,14.20
2017-09-01T03:38:15.330Z,13.20
2017-09-01T03:40:42.825Z,13.47
2017-09-01T03:43:10.380Z,12.50
2017-09-01T03:45:37.878Z,13.07
2017-09-01T03:48:05.409Z,14.70
2017-09-01T03:50:32.904Z,14.10
2017-09-01T03:53:00.457Z,14.03
2017-09-01T03:55:28.102Z,13.20
2017-09-01T03:57:55.650Z,13.10
2017-09-01T04:00:23.216Z,12.43
2017-09-01T04:02:50.719Z,14.10
2017-09-01T04:05:18.301Z,14.27
2017-09-01T04:07:45.869Z,15.27
2017-09-01T04:10:13.380Z,15.03
2017-09-01T04:12:40.869Z,14.73
2017-09-01T04:15:08.376Z,13.03
2017-09-01T04:17:35.876Z,13.60
2017-09-01T04:20:03.402Z,14.43
2017-09-01T04:22:30.984Z,13.23
2017-09-01T04:24:58.533Z,12.57
2017-09-01T04:27:26.072Z,15.03
2017-09-01T04:29:53.618Z,13.43
2017-09-01T04:32:21.130Z,13.27
2017-09-01T04:34:48.658Z,14.50
2017-09-01T04:37:16.218Z,13.10
2017-09-01T04:39:43.796Z,12.33
2017-09-01T04:42:11.337Z,13.17
2017-09-01T04:44:38.885Z,12.57
2017-09-01T04:47:06.396Z,12.73
2017-09-01T04:49:33.973Z,12.57
2017-09-01T04:52:01.520Z,13.37
2017-09-01T04:54:29.008Z,12.73
2017-09-01T04:56:56.633Z,13.03
2017-09-01T04:59:24.129Z,13.00
2017-09-01T05:01:51.721Z,14.40
2017-09-01T05:04:19.220Z,13.77
2017-09-01T05:06:46.782Z,13.80
2017-09-01T05:09:14.405Z,14.93
2017-09-01T05:11:42.041Z,18.77
2017-09-01T05:14:09.617Z,15.27
2017-09-01T05:16:37.109Z,14.90
2017-09-01T05:19:04.639Z,14.10
2017-09-01T05:21:32.124Z,12.30
2017-09-01T05:23:59.632Z,13.33
2017-09-01T05:26:27.135Z,12.87
2017-09-01T05:28:54.673Z,13.00
2017-09-01T05:31:22.216Z,13.13
2017-09-01T05:33:49.729Z,12.60
2017-09-01T05:36:17.999Z,12.43
2017-09-01T05:38:45.613Z,12.30
2017-09-01T05:41:13.214Z,11.87
2017-09-01T05:43:40.721Z,12.13
2017-09-01T05:46:08.307Z,12.80
2017-09-01T05:48:35.860Z,13.80
2017-09-01T05:51:03.349Z,12.50
2017-09-01T05:53:30.845Z,13.00
2017-09-01T05:55:58.352Z,12.77
2017-09-01T05:58:25.933Z,13.23
2017-09-01T06:00:53.438Z,13.90
2017-09-01T06:03:21.031Z,13.53
2017-09-01T06:05:48.685Z,12.23
2017-09-01T06:08:16.398Z,12.90
2017-09-01T06:10:43.912Z,14.07
2017-09-01T06:13:11.407Z,12.67
2017-09-01T06:15:38.918Z,13.03
2017-09-01T06:18:06.409Z,12.63
2017-09-01T06:20:34.045Z,11.80
2017-09-01T06:23:01.545Z,13.10
2017-09-01T06:25:29.132Z,12.30
2017-09-01T06:27:56.636Z,12.97
2017-09-01T06:30:24.124Z,11.60
2017-09-01T06:32:51.721Z,11.63
2017-09-01T06:35:19.276Z,12.50
2017-09-01T06:37:46.813Z,11.20
2017-09-01T06:40:14.330Z,12.40
2017-09-01T06:42:41.917Z,11.70
2017-09-01T06:45:09.404Z,11.70
2017-09-01T06:47:36.944Z,11.70
2017-09-01T06:50:04.517Z,12.77
2017-09-01T06:52:32.025Z,11.67
2017-09-01T06:54:59.537Z,11.40
2017-09-01T06:57:27.077Z,10.40
2017-09-01T06:59:54.622Z,11.57
2017-09-01T07:02:22.117Z,11.37
2017-09-01T07:04:49.709Z,11.00
2017-09-01T07:07:17.386Z,10.33
2017-09-01T07:09:44.903Z,11.13
2017-09-01T07:12:12.458Z,10.63
2017-09-01T07:14:39.973Z,10.17
2017-09-01T07:17:07.537Z,10.43
2017-09-01T07:19:35.048Z,9.87
2017-09-01T07:22:02.547Z,10.27
2017-09-01T07:24:30.161Z,10.40
2017-09-01T07:26:57.653Z,9.73
2017-09-01T07:29:25.141Z,9.60
2017-09-01T07:31:52.653Z,10.90
2017-09-01T07:34:20.153Z,8.63
2017-09-01T07:36:47.690Z,8.50
2017-09-01T07:39:15.257Z,9.70
2017-09-01T07:41:42.809Z,9.10
2017-09-01T07:44:10.305Z,9.40
2017-09-01T07:46:37.890Z,9.67
2017-09-01T07:49:06.233Z,9.70
2017-09-01T07:51:34.928Z,9.97
2017-09-01T08:22:14.313Z,10.50
2017-09-01T08:24:42.488Z,10.13
2017-09-01T08:27:09.983Z,11.87
2017-09-01T08:29:37.857Z,11.20
2017-09-01T08:32:05.575Z,10.60
2017-09-01T08:34:33.381Z,12.60
2017-09-01T08:37:02.037Z,11.37
2017-09-01T08:39:30.517Z,12.50
2017-09-01T08:42:01.370Z,11.53
2017-09-01T08:44:32.131Z,12.90
2017-09-01T08:47:02.949Z,13.10
2017-09-01T08:49:31.427Z,12.67
2017-09-01T08:51:59.142Z,10.70
2017-09-01T08:54:29.896Z,11.23
2017-09-01T08:56:59.618Z,12.13
2017-09-01T08:59:31.286Z,10.57
2017-09-01T09:02:01.425Z,12.33
2017-09-01T09:04:32.086Z,12.50
2017-09-01T09:07:00.325Z,11.40
2017-09-01T09:09:28.830Z,11.67
2017-09-01T09:12:07.687Z,11.90
2017-09-01T09:14:35.588Z,11.77
2017-09-01T09:17:03.600Z,12.23
2017-09-01T09:19:32.425Z,13.20
2017-09-01T09:22:02.551Z,14.63
2017-09-01T09:24:31.811Z,14.47
2017-09-01T09:27:00.974Z,13.37
2017-09-01T09:29:31.291Z,14.10
2017-09-01T09:32:03.258Z,12.87
2017-09-01T09:34:32.236Z,14.27
2017-09-01T09:37:01.761Z,13.23
2017-09-01T09:39:31.873Z,13.57
2017-09-01T09:42:02.878Z,12.60
2017-09-01T09:44:32.847Z,13.40
2017-09-01T09:47:03.327Z,14.30
2017-09-01T09:49:32.474Z,13.87
2017-09-01T09:52:03.126Z,12.73
2017-09-01T09:54:33.263Z,12.60
2017-09-01T09:57:03.217Z,12.87
2017-09-01T09:59:35.339Z,13.73
2017-09-01T10:02:05.537Z,13.93
2017-09-01T10:04:34.594Z,13.73
2017-09-01T10:07:04.375Z,14.80
2017-09-01T10:09:32.475Z,12.90
2017-09-01T10:12:02.071Z,13.63
2017-09-01T10:14:32.996Z,13.80
2017-09-01T10:17:03.903Z,14.03
2017-09-01T10:19:33.720Z,10.60
2017-09-01T10:22:01.985Z,11.70
2017-09-01T10:24:32.421Z,10.00
2017-09-01T10:27:03.609Z,8.60
2017-09-01T10:29:33.597Z,8.40
2017-09-01T10:32:04.070Z,9.13
2017-09-01T10:34:34.098Z,9.10
2017-09-01T10:37:04.416Z,9.70
2017-09-01T10:39:33.510Z,9.80
2017-09-01T10:42:03.801Z,9.70
2017-09-01T10:44:34.520Z,9.53
2017-09-01T10:47:04.147Z,9.53
2017-09-01T10:49:44.309Z,10.23
2017-09-01T10:52:24.028Z,9.63
2017-09-01T10:55:14.205Z,8.87
2017-09-01T10:58:08.047Z,9.07
2017-09-01T11:00:36.454Z,8.37
2017-09-01T11:03:05.524Z,7.63
2017-09-01T11:05:36.685Z,7.83
2017-09-01T11:08:05.221Z,7.80
2017-09-01T11:10:35.155Z,6.43
2017-09-01T11:13:03.421Z,6.50
2017-09-01T11:15:34.948Z,6.70
2017-09-01T11:18:06.502Z,5.90
2017-09-01T11:20:40.882Z,6.17
2017-09-01T11:23:15.773Z,5.80
2017-09-01T11:25:43.290Z,4.77
2017-09-01T11:28:10.869Z,5.13
2017-09-01T11:30:38.410Z,6.03
2017-09-01T11:33:06.432Z,6.30
2017-09-01T11:35:36.488Z,5.97
2017-09-01T11:38:05.629Z,4.90
2017-09-01T11:40:33.906Z,3.97
2017-09-01T11:43:04.486Z,3.97
2017-09-01T11:45:42.961Z,4.27
2017-09-01T11:48:10.578Z,3.53
2017-09-01T11:50:39.197Z,3.43
2017-09-01T11:53:07.432Z,4.00
2017-09-01T11:55:35.260Z,4.30
2017-09-01T11:58:03.862Z,3.23
2017-09-01T12:00:35.291Z,2.80
2017-09-01T12:03:14.753Z,3.33
2017-09-01T12:05:42.242Z,2.93
2017-09-01T12:08:09.766Z,3.37
2017-09-01T12:10:38.317Z,2.77
2017-09-01T12:13:06.510Z,4.03
2017-09-01T12:15:34.290Z,3.20
2017-09-01T12:18:03.587Z,3.10
2017-09-01T12:20:33.926Z,3.20
2017-09-01T12:23:02.913Z,3.00
2017-09-01T12:25:33.074Z,3.50
2017-09-01T12:28:01.526Z,2.93
2017-09-01T12:30:30.330Z,3.20
2017-09-01T12:32:58.061Z,3.00
2017-09-01T12:35:25.583Z,2.43
2017-09-01T12:37:53.254Z,2.70
2017-09-01T12:40:20.785Z,2.90
2017-09-01T12:42:48.285Z,3.17
2017-09-01T12:45:15.785Z,3.40
2017-09-01T12:47:43.290Z,2.60
2017-09-01T12:50:10.769Z,3.40
2017-09-01T12:52:38.538Z,3.13
2017-09-01T12:55:06.466Z,4.03
2017-09-01T12:57:34.144Z,3.50
2017-09-01T13:00:02.082Z,3.20
2017-09-01T13:02:29.956Z,3.43
2017-09-01T13:04:57.480Z,3.00
2017-09-01T13:07:25.057Z,3.07
2017-09-01T13:09:52.753Z,3.03
2017-09-01T13:12:20.324Z,2.50
2017-09-01T13:14:47.933Z,3.40
2017-09-01T13:17:15.481Z,2.97
2017-09-01T13:19:42.969Z,3.07
2017-09-01T13:22:10.453Z,3.30
2017-09-01T13:24:37.956Z,3.73
2017-09-01T13:27:05.451Z,3.00
2017-09-01T13:29:33.081Z,2.90
2017-09-01T13:32:00.689Z,3.30
2017-09-01T13:34:28.249Z,2.60
2017-09-01T13:36:55.729Z,2.80
2017-09-01T13:39:23.224Z,2.97
2017-09-01T13:41:50.753Z,2.93
2017-09-01T13:44:18.393Z,3.77
2017-09-01T13:46:46.109Z,2.80
2017-09-01T13:49:13.721Z,2.60
2017-09-01T13:51:41.240Z,2.70
2017-09-01T13:54:08.738Z,2.60
2017-09-01T13:56:36.339Z,3.20
2017-09-01T13:59:03.833Z,2.80
2017-09-01T14:01:31.393Z,3.10
2017-09-01T14:03:58.937Z,2.50
2017-09-01T14:06:26.489Z,2.00
2017-09-01T14:08:53.973Z,2.17
2017-09-01T14:11:21.491Z,2.50
2017-09-01T14:13:49.050Z,2.60
2017-09-01T14:16:16.561Z,2.80
2017-09-01T14:18:44.065Z,2.80
2017-09-01T14:21:11.625Z,2.50
2017-09-01T14:23:39.214Z,2.93
2017-09-01T14:26:06.732Z,2.93
2017-09-01T14:28:34.232Z,2.63
2017-09-01T14:31:01.817Z,2.50
2017-09-01T14:33:29.322Z,3.80
2017-09-01T14:35:56.804Z,2.83
2017-09-01T14:38:24.305Z,3.07
2017-09-01T14:40:51.793Z,3.30
2017-09-01T14:43:19.428Z,3.33
2017-09-01T14:45:46.938Z,4.03
2017-09-01T14:48:14.518Z,3.67
2017-09-01T14:50:42.178Z,3.73
2017-09-01T14:53:09.818Z,3.60
2017-09-01T14:55:37.360Z,3.10
2017-09-01T14:58:04.882Z,5.13
2017-09-01T15:00:32.380Z,4.33
2017-09-01T15:02:59.865Z,4.77
2017-09-01T15:05:27.370Z,3.60
2017-09-01T15:07:54.880Z,4.20
2017-09-01T15:10:22.385Z,3.00
2017-09-01T15:12:49.871Z,3.50
2017-09-01T15:15:17.388Z,4.23
2017-09-01T15:17:44.984Z,3.90
2017-09-01T15:20:12.551Z,3.70
2017-09-01T15:22:40.066Z,4.30
2017-09-01T15:25:07.625Z,3.70
2017-09-01T15:27:35.157Z,3.67
2017-09-01T15:30:02.705Z,4.33
2017-09-01T15:32:30.214Z,3.70
2017-09-01T15:34:57.697Z,3.57
2017-09-01T15:37:25.201Z,3.70
2017-09-01T15:39:52.748Z,4.40
2017-09-01T15:42:20.285Z,5.40
2017-09-01T15:44:47.773Z,5.00
2017-09-01T15:47:15.378Z,4.80
2017-09-01T15:49:42.877Z,5.37
2017-09-01T15:52:10.510Z,5.03
2017-09-01T15:54:38.013Z,5.83
2017-09-01T15:57:05.561Z,5.07
2017-09-01T15:59:33.045Z,5.23
2017-09-01T16:02:00.552Z,6.10
2017-09-01T16:04:28.041Z,6.03
2017-09-01T16:06:55.554Z,5.93
2017-09-01T16:09:23.167Z,5.33
2017-09-01T16:11:51.074Z,5.07
2017-09-01T16:14:18.739Z,5.03
2017-09-01T16:16:46.289Z,5.60
2017-09-01T16:19:13.832Z,5.83
2017-09-01T16:21:41.528Z,6.13
2017-09-01T16:24:09.046Z,6.43
2017-09-01T16:26:36.548Z,6.00
2017-09-01T16:29:04.133Z,6.50
2017-09-01T16:31:31.733Z,5.30
2017-09-01T16:33:59.253Z,5.07
2017-09-01T16:36:26.825Z,6.07
2017-09-01T16:38:54.365Z,6.03
2017-09-01T16:41:21.947Z,6.67
2017-09-01T16:43:49.623Z,7.00
2017-09-01T16:46:17.203Z,6.63
2017-09-01T16:48:44.703Z,7.10
2017-09-01T16:51:12.276Z,6.03
2017-09-01T16:53:39.771Z,6.37
2017-09-01T16:56:07.396Z,5.13
2017-09-01T16:58:34.923Z,6.43
2017-09-01T17:01:02.437Z,5.20
2017-09-01T17:03:29.925Z,4.57
2017-09-01T17:05:57.461Z,4.90
2017-09-01T17:08:24.949Z,5.50
2017-09-01T17:10:52.434Z,5.10
2017-09-01T17:13:19.928Z,5.37
2017-09-01T17:15:47.424Z,5.30
2017-09-01T17:18:14.945Z,5.20
2017-09-01T17:20:42.427Z,6.17
2017-09-01T17:23:09.930Z,4.87
2017-09-01T17:25:37.473Z,8.10
2017-09-01T17:28:05.012Z,9.73
2017-09-01T17:30:32.617Z,12.07
2017-09-01T17:33:00.239Z,11.10
2017-09-01T17:35:27.982Z,14.80
2017-09-01T17:37:55.604Z,12.50
2017-09-01T17:40:23.101Z,15.27
2017-09-01T17:42:50.716Z,16.40
2017-09-01T17:45:18.205Z,16.27
2017-09-01T17:47:45.726Z,15.60
2017-09-01T17:50:13.228Z,15.50
2017-09-01T17:52:40.745Z,17.57
2017-09-01T17:55:08.238Z,16.57
2017-09-01T17:57:35.744Z,15.43
2017-09-01T18:00:03.235Z,17.23
2017-09-01T18:02:30.864Z,14.17
2017-09-01T18:04:58.418Z,14.93
2017-09-01T18:07:26.140Z,16.47
2017-09-01T18:09:54.136Z,15.57
2017-09-01T18:12:21.733Z,18.73
2017-09-01T18:14:49.249Z,18.00
2017-09-01T18:17:16.745Z,17.60
2017-09-01T18:19:44.249Z,17.40
2017-09-01T18:22:11.740Z,20.73
2017-09-01T18:24:39.448Z,21.13
2017-09-01T18:27:06.938Z,21.67
2017-09-01T18:29:34.449Z,19.30
2017-09-01T18:32:01.953Z,18.83
2017-09-01T18:34:29.470Z,19.13
2017-09-01T18:36:56.977Z,18.60
2017-09-01T18:39:24.579Z,19.30
2017-09-01T18:41:52.065Z,21.40
2017-09-01T18:44:19.609Z,22.47
2017-09-01T18:46:47.115Z,24.00
2017-09-01T18:49:14.692Z,22.60
2017-09-01T18:51:42.185Z,29.20
2017-09-01T18:54:09.978Z,26.77
2017-09-01T18:56:37.579Z,27.00
2017-09-01T18:59:05.617Z,29.23
2017-09-01T19:01:33.134Z,35.80
2017-09-01T19:04:00.679Z,35.20
2017-09-01T19:06:28.229Z,28.60
2017-09-01T19:08:55.995Z,27.87
2017-09-01T19:11:23.615Z,27.67
2017-09-01T19:13:51.250Z,24.70
2017-09-01T19:16:18.741Z,24.10
2017-09-01T19:18:46.245Z,29.00
2017-09-01T19:21:13.881Z,27.57
2017-09-01T19:23:41.441Z,24.13
2017-09-01T19:26:08.965Z,25.00
2017-09-01T19:28:36.513Z,25.07
2017-09-01T19:31:04.053Z,21.97
2017-09-01T19:33:31.596Z,25.23
2017-09-01T19:35:59.151Z,25.90
2017-09-01T19:38:26.689Z,23.30
2017-09-01T19:40:54.209Z,27.10
2017-09-01T19:43:21.705Z,24.60
2017-09-01T19:45:49.317Z,22.30
2017-09-01T19:48:16.810Z,24.10
2017-09-01T19:50:44.535Z,25.57
2017-09-01T19:53:12.022Z,29.47
2017-09-01T19:55:39.533Z,26.47
2017-09-01T19:58:07.063Z,28.67
2017-09-01T20:00:34.581Z,27.97
2017-09-01T20:03:02.069Z,31.80
2017-09-01T20:05:29.577Z,29.90
2017-09-01T20:07:57.097Z,30.37
2017-09-01T20:10:24.674Z,27.23
2017-09-01T20:12:52.221Z,30.40
2017-09-01T20:15:19.732Z,27.77
2017-09-01T20:17:47.226Z,28.37
2017-09-01T20:20:14.738Z,30.60
2017-09-01T20:22:42.310Z,30.03
2017-09-01T20:25:09.818Z,30.67
2017-09-01T20:27:37.381Z,28.37
2017-09-01T20:30:04.885Z,29.13
2017-09-01T20:32:32.377Z,30.60
2017-09-01T20:34:59.868Z,28.97
2017-09-01T20:37:27.378Z,30.00
2017-09-01T20:39:54.869Z,30.60
2017-09-01T20:42:22.384Z,28.70
2017-09-01T20:44:49.878Z,31.43
2017-09-01T20:47:17.389Z,30.77
2017-09-01T20:49:44.877Z,33.77
2017-09-01T20:52:12.437Z,29.30
2017-09-01T20:54:39.934Z,29.13
2017-09-01T20:57:07.454Z,28.73
2017-09-01T20:59:35.984Z,26.90
2017-09-01T21:02:03.520Z,29.00
2017-09-01T21:04:31.055Z,27.83
2017-09-01T21:06:58.597Z,32.07
2017-09-01T21:09:26.116Z,32.23
2017-09-01T21:11:53.633Z,31.40
2017-09-01T21:14:21.129Z,29.80
2017-09-01T21:16:48.641Z,30.40
2017-09-01T21:19:16.137Z,30.33
2017-09-01T21:21:43.650Z,34.73
2017-09-01T21:24:11.141Z,30.00
2017-09-01T21:26:38.645Z,29.70
2017-09-01T21:29:06.511Z,32.20
2017-09-01T21:31:34.043Z,30.20
2017-09-01T21:34:01.544Z,28.50
2017-09-01T21:36:29.120Z,29.07
2017-09-01T21:38:56.624Z,30.47
2017-09-01T21:41:24.109Z,28.23
2017-09-01T21:43:51.620Z,28.50
2017-09-01T21:46:19.120Z,29.37
2017-09-01T21:48:46.629Z,27.97
2017-09-01T21:51:14.119Z,27.47
2017-09-01T21:53:41.627Z,26.00
2017-09-01T21:56:09.114Z,24.97
2017-09-01T21:58:36.836Z,24.37
2017-09-01T22:04:09.090Z,25.50
2017-09-01T22:06:36.589Z,24.83
2017-09-01T22:09:04.122Z,23.90
2017-09-01T22:11:31.627Z,24.63
2017-09-01T22:14:00.130Z,24.53
2017-09-01T22:16:27.768Z,26.60
2017-09-01T22:18:55.356Z,25.17
2017-09-01T22:21:22.863Z,25.00
2017-09-01T22:23:50.369Z,26.40
2017-09-01T22:26:17.912Z,23.37
2017-09-01T22:28:45.460Z,24.10
2017-09-01T22:31:13.042Z,25.80
2017-09-01T22:33:40.533Z,24.97
2017-09-01T22:36:08.037Z,25.73
2017-09-01T22:38:35.547Z,26.20
2017-09-01T22:41:03.109Z,27.20
2017-09-01T22:43:30.597Z,25.37
2017-09-01T22:45:58.197Z,27.97
2017-09-01T22:48:25.685Z,28.13
2017-09-01T22:50:53.284Z,26.80
2017-09-01T22:53:20.795Z,27.10
2017-09-01T22:55:48.349Z,30.17
2017-09-01T22:58:15.945Z,30.33
2017-09-01T23:00:43.602Z,27.93
2017-09-01T23:03:11.108Z,28.53
2017-09-01T23:05:38.633Z,30.70
2017-09-01T23:08:06.175Z,32.13
2017-09-01T23:10:33.747Z,30.03
2017-09-01T23:13:01.286Z,32.77
2017-09-01T23:15:28.829Z,33.50
2017-09-01T23:17:56.333Z,31.90
2017-09-01T23:20:23.821Z,31.87
2017-09-01T23:22:51.434Z,29.53
2017-09-01T23:25:18.942Z,29.20
2017-09-01T23:27:46.513Z,28.70
2017-09-01T23:30:14.029Z,26.30
2017-09-01T23:32:41.557Z,29.20
2017-09-01T23:35:09.162Z,28.50
2017-09-01T23:37:36.668Z,28.57
2017-09-01T23:40:04.232Z,31.17
2017-09-01T23:42:31.782Z,31.10
2017-09-01T23:44:59.334Z,27.57
2017-09-01T23:47:27.094Z,29.23
2017-09-01T23:49:54.619Z,27.40
2017-09-01T23:52:22.128Z,30.53
2017-09-01T23:54:49.704Z,29.53
2017-09-01T23:57:17.249Z,30.60
2017-09-01T23:59:44.767Z,27.80
